Main page
METAR-TAF:

METAR-TAF

Airports :

Mykonos, Greece

Mykonos International Airport

latitude: 37-26-09N, longitude: 025-20-45E, elevation: 123 m

Current weather observation

The report was made 39 minutes ago, at 09:20 UTC
Wind 21 kt from the North
Temperature 18°C
Humidity 64%
Pressure 1019 hPa
Visibility 10 km or more
Few clouds at a height of 1800 ft

METAR: LGMK 190920Z 35021KT 9999 FEW018 18/11 Q1019

Time: 12:59 (09:59 UTC)

Forecast

The report was made 1 hour and 59 minutes ago, at 08:00 UTC
Forecast valid from 19 at 09 UTC to 19 at 18 UTC
Wind 25 kt from the North/Northwest
Visibility 10 km or more
Few clouds at a height of 1800 ft

TAF: LGMK 190800Z 1909/1918 34025KT 9999 FEW018

Weather observations and forecasts of more than 4000 airports (METAR and TAF reports).

The available stations are represented by yellow and red dots on the map.

Hover mouse over dot to see the name of the station.

Then click to see weather observations and forecasts.

To change the map : click on the green buttons with a black cross to zoom in, on the green button with a dash to zoom out, or on the green arrows for adjacent maps.


METAR-TAF: